Latest Weather Observations for Cooma Airport

IDN60801

Issued at 2:03 am EST Wednesday 4 May 2016 (issued every 30 minutes, with the page automatically refreshed every 10 minutes)

About weather observations | Map of weather stations | Latest weather observations for NSW | Other Formats
Station Details ID: 070217 Name: COOMA AIRPORT AWS Lat: -36.29 Lon: 148.97 Height: 930.0 m
Data from the previous 72 hours. | See also: Recent months at Cooma Airport
Date/Time
EST
Temp
°C
App
Temp
°C
Dew
Point
Rel
Hum
%
Delta-T
°C
Wind Press
QNH
hPa
Press
MSL
hPa
Rain
since 9 am
mm
Dir
 
Spd
km/h
Gust
km/h
Spd
kts
Gust
kts
04/02:00am 11.9 7.8 6.4 69 2.8 WNW 17 24 9 13 1009.3 1009.3 0.0
04/01:30am 12.2 7.2 6.3 67 3.0 WNW 22 35 12 19 1009.2 1009.2 0.0
04/01:00am 12.0 7.9 6.1 67 2.9 WNW 17 26 9 14 1008.9 1008.9 0.0
04/12:30am 12.2 8.0 5.8 65 3.2 WNW 17 33 9 18 1009.1 1009.1 0.0
04/12:00am 12.2 9.1 5.4 63 3.3 WNW 11 17 6 9 1008.9 1008.9 0.0
 
Date/Time
EST
Temp
°C
App
Temp
°C
Dew
Point
Rel
Hum
%
Delta-T
°C
Wind Press
QNH
hPa
Press
MSL
hPa
Rain
since 9 am
mm
Dir
 
Spd
km/h
Gust
km/h
Spd
kts
Gust
kts
03/11:30pm 12.2 8.6 5.1 62 3.5 WNW 13 19 7 10 1009.0 1009.0 0.0
03/11:00pm 12.2 8.2 4.7 60 3.6 WNW 15 24 8 13 1009.1 1009.1 0.0
03/10:30pm 12.4 7.6 4.6 59 3.8 WNW 19 33 10 18 1009.1 1009.1 0.0
03/10:00pm 12.0 6.5 4.2 59 3.7 WNW 22 39 12 21 1009.1 1009.1 0.0
03/09:30pm 11.9 5.5 3.4 56 4.0 WNW 26 43 14 23 1008.7 1008.7 0.0
03/09:00pm 12.3 5.1 3.0 53 4.3 W 30 52 16 28 1008.1 1008.1 0.0
03/08:33pm 12.3 4.5 3.0 53 4.3 WNW 33 52 18 28 1007.5 1007.4 0.0
03/08:30pm 12.3 4.2 3.0 53 4.3 WNW 35 52 19 28 1007.4 1007.3 0.0
03/08:08pm 12.1 3.9 2.8 53 4.3 WNW 35 54 19 29 1007.2 1007.2 0.0
03/08:00pm 12.1 4.3 3.1 54 4.2 WNW 33 50 18 27 1007.2 1007.2 0.0
03/07:30pm 12.1 4.5 3.1 54 4.2 WNW 32 52 17 28 1006.7 1006.7 0.0
03/07:00pm 12.1 5.2 2.8 53 4.3 NW 28 48 15 26 1006.5 1006.4 0.0
03/06:31pm 12.1 4.5 2.6 52 4.4 WNW 32 50 17 27 1006.5 1006.4 0.0
03/06:30pm 12.2 4.4 2.6 52 4.4 WNW 33 50 18 27 1006.5 1006.4 0.0
03/06:00pm 12.1 5.2 2.3 51 4.5 NW 28 48 15 26 1005.7 1005.7 0.0
03/05:40pm 12.4 5.5 2.3 50 4.6 NW 28 48 15 26 1005.4 1005.3 0.0
03/05:30pm 12.3 6.2 2.5 51 4.5 NW 24 50 13 27 1005.3 1005.2 0.0
03/05:00pm 13.0 5.3 2.3 48 5.0 NW 32 56 17 30 1004.8 1004.8 0.0
03/04:30pm 13.7 5.8 2.0 45 5.4 NW 33 56 18 30 1004.8 1004.8 0.0
03/04:00pm 14.2 5.6 2.5 45 5.5 NW 37 61 20 33 1004.9 1004.9 0.0
03/03:30pm 13.7 6.1 2.9 48 5.1 NW 32 50 17 27 1005.3 1005.2 0.0
03/03:12pm 13.5 6.2 2.4 47 5.1 NW 30 50 16 27 1005.7 1005.7 0.0
03/03:00pm 14.3 7.6 3.5 48 5.2 NW 28 43 15 23 1005.8 1005.8 0.0
03/02:31pm 14.9 7.1 2.8 44 5.7 NW 33 52 18 28 1006.0 1006.0 0.0
03/02:30pm 14.7 6.5 2.6 44 5.7 NW 35 52 19 28 1006.0 1006.0 0.0
03/02:00pm 14.6 6.9 2.2 43 5.8 NW 32 54 17 29 1006.0 1006.0 0.0
03/01:57pm 14.6 7.3 2.2 43 5.8 NW 30 48 16 26 1006.0 1006.0 0.0
03/01:30pm 14.6 6.9 2.2 43 5.8 NW 32 46 17 25 1006.4 1006.3 0.0
03/01:00pm 14.7 6.5 2.9 45 5.6 WNW 35 54 19 29 1006.9 1006.9 0.0
03/12:31pm 14.7 7.1 2.6 44 5.7 WNW 32 50 17 27 1007.4 1007.3 0.0
03/12:30pm 14.5 6.6 2.4 44 5.7 WNW 33 50 18 27 1007.4 1007.3 0.0
03/12:00pm 14.5 4.6 3.0 46 5.5 W 44 67 24 36 1007.6 1007.6 0.0
03/11:30am 13.9 2.8 2.5 46 5.3 WNW 50 72 27 39 1007.6 1007.6 0.0
03/11:00am 13.8 6.1 2.1 45 5.4 WNW 32 67 17 36 1007.4 1007.3 0.0
03/10:30am 13.1 4.4 2.1 47 5.0 WNW 37 56 20 30 1008.1 1008.1 0.0
03/10:00am 13.0 6.1 2.3 48 4.9 WNW 28 52 15 28 1008.9 1008.9 0.0
03/09:30am 12.6 5.7 2.7 51 4.6 WNW 28 46 15 25 1009.1 1009.1 0.0
03/09:28am 12.4 5.5 2.6 51 4.5 WNW 28 46 15 25 1009.1 1009.1 0.0
03/09:00am 12.0 7.6 2.7 53 4.3 NW 15 28 8 15 1009.2 1009.2 0.0
03/08:30am 11.6 7.3 3.1 56 3.9 NW 15 22 8 12 1009.4 1009.5 0.0
03/08:00am 10.4 6.1 3.0 60 3.4 NW 15 22 8 12 1009.7 1009.7 0.0
03/07:30am 9.3 3.9 2.2 61 3.2 WNW 20 30 11 16 1009.5 1009.6 0.0
03/07:00am 8.4 1.7 1.6 62 3.0 WNW 26 41 14 22 1009.4 1009.5 0.0
03/06:30am 9.0 3.4 1.4 59 3.3 NW 20 37 11 20 1009.3 1009.3 0.0
03/06:00am 9.4 3.1 1.6 58 3.4 WNW 24 43 13 23 1009.9 1009.9 0.0
03/05:36am 9.2 2.2 1.9 60 3.2 WNW 28 50 15 27 1009.4 1009.5 0.0
03/05:30am 8.8 2.5 1.7 61 3.1 WNW 24 37 13 20 1009.3 1009.3 0.0
03/05:00am 8.5 3.0 1.9 63 2.9 WNW 20 35 11 19 1009.8 1009.8 0.0
03/04:30am 8.0 4.5 1.0 61 3.0 E 9 15 5 8 1010.0 1010.0 0.0
03/04:00am 7.7 3.7 0.7 61 3.0 NW 11 19 6 10 1010.2 1010.2 0.0
03/03:30am 7.6 3.2 0.6 61 3.0 WNW 13 26 7 14 1010.0 1010.0 0.0
03/03:00am 7.7 3.3 0.2 59 3.1 NW 13 26 7 14 1010.1 1010.1 0.0
03/02:30am 6.9 2.5 0.1 62 2.8 NNW 13 17 7 9 1010.4 1010.5 0.0
03/02:00am 7.9 2.3 0.2 58 3.2 NW 19 30 10 16 1011.0 1011.0 0.0
03/01:30am 7.4 2.9 -0.1 59 3.1 NW 13 20 7 11 1011.4 1011.5 0.0
03/01:00am 7.4 2.2 -0.1 59 3.1 NW 17 26 9 14 1011.6 1011.7 0.0
03/12:30am 7.4 1.6 -0.1 59 3.1 NW 20 35 11 19 1012.0 1012.0 0.0
03/12:00am 7.1 1.8 -0.4 59 3.1 NW 17 24 9 13 1012.2 1012.2 0.0
 
Date/Time
EST
Temp
°C
App
Temp
°C
Dew
Point
Rel
Hum
%
Delta-T
°C
Wind Press
QNH
hPa
Press
MSL
hPa
Rain
since 9 am
mm
Dir
 
Spd
km/h
Gust
km/h
Spd
kts
Gust
kts
02/11:30pm 7.3 1.5 -0.2 59 3.1 NW 20 35 11 19 1012.5 1012.6 0.0
02/11:00pm 7.2 0.7 0.0 60 3.0 WNW 24 32 13 17 1012.6 1012.7 0.0
02/10:30pm 6.7 1.4 -0.3 61 2.9 WNW 17 24 9 13 1013.2 1013.3 0.0
02/10:00pm 5.6 2.1 -1.1 62 2.7 SW 7 11 4 6 1013.5 1013.6 0.0
02/09:30pm 5.6 1.8 -0.9 63 2.6 NW 9 17 5 9 1013.4 1013.5 0.0
02/09:00pm 3.6 -0.4 -2.1 66 2.2 NW 9 15 5 8 1013.5 1013.6 0.0
02/08:30pm 4.8 0.2 -1.4 64 2.4 N 13 19 7 10 1013.4 1013.5 0.0
02/08:00pm 5.1 0.5 -0.7 66 2.3 N 13 22 7 12 1013.8 1013.9 0.0
02/07:30pm 5.3 0.6 -1.6 61 2.7 NNW 13 19 7 10 1013.7 1013.8 0.0
02/07:00pm 6.6 0.8 -0.4 61 2.9 NW 20 30 11 16 1013.5 1013.6 0.0
02/06:30pm 6.0 1.2 -0.1 65 2.5 WNW 15 20 8 11 1014.4 1014.5 0.0
02/06:00pm 7.0 2.1 -0.2 60 3.0 W 15 24 8 13 1014.5 1014.6 0.0
02/05:30pm 7.5 1.7 0.0 59 3.1 WNW 20 32 11 17 1013.9 1014.0 0.0
02/05:00pm 8.1 2.3 -0.1 56 3.4 WNW 20 32 11 17 1014.1 1014.3 0.0
02/04:30pm 9.0 2.4 -0.1 53 3.8 WNW 24 33 13 18 1014.1 1014.3 0.0
02/04:00pm 9.4 3.3 0.1 52 4.0 WNW 22 32 12 17 1013.7 1013.8 0.0
02/03:30pm 10.4 4.2 -0.1 48 4.5 NW 22 35 12 19 1013.3 1013.4 0.0
02/03:00pm 11.3 4.5 0.7 48 4.6 NW 26 39 14 21 1013.0 1013.1 0.0
02/02:30pm 11.8 4.5 0.3 45 5.0 NW 28 39 15 21 1012.9 1013.0 0.0
02/02:00pm 12.6 2.4 -0.6 40 5.7 NW 43 59 23 32 1012.6 1012.7 0.0
02/01:30pm 12.5 2.5 -1.8 37 6.0 NW 41 57 22 31 1012.3 1012.4 0.0
02/01:10pm 12.8 5.3 -1.5 37 6.1 NW 28 46 15 25 1012.4 1012.5 0.0
02/01:00pm 13.0 5.9 -1.0 38 6.0 NW 26 41 14 22 1012.5 1012.6 0.0
02/12:55pm 12.7 5.2 -1.2 38 5.9 NW 28 41 15 22 1012.6 1012.7 0.0
02/12:30pm 13.8 8.2 -2.6 32 6.8 NNW 17 32 9 17 1012.9 1013.0 0.0
02/12:00pm 13.6 7.5 -2.3 33 6.7 WNW 20 30 11 16 1013.5 1013.6 0.0
02/11:30am 13.0 7.6 -1.3 37 6.1 NNW 17 32 9 17 1013.9 1014.0 0.0
02/11:00am 11.9 6.1 -0.3 43 5.3 NW 20 28 11 15 1014.5 1014.6 0.0
02/10:30am 10.8 5.3 -1.9 41 5.2 NNW 17 28 9 15 1014.9 1015.0 0.0
02/10:00am 10.2 4.0 -2.8 40 5.2 NW 20 30 11 16 1015.3 1015.5 0.0
02/09:30am 9.9 5.1 0.0 50 4.2 NNW 15 24 8 13 1015.8 1015.9 0.0
02/09:00am 7.8 2.8 1.4 64 2.8 NE 17 20 9 11 1015.9 1016.1 0.0
02/08:30am 5.8 1.6 1.7 75 1.7 NE 13 17 7 9 1016.0 1016.2 0.0
02/08:00am 3.9 0.3 0.9 81 1.2 NNE 9 13 5 7 1015.9 1016.1 0.0
02/07:30am 1.7 -2.0 -0.2 87 0.7 N 9 13 5 7 1016.0 1016.2 0.0
02/07:00am -1.0 -4.7 -3.2 85 0.7 NNE 7 11 4 6 1016.0 1016.2 0.0
02/06:30am -2.3 -6.9 -4.0 88 0.5 N 11 15 6 8 1015.7 1015.8 0.0
02/06:00am -0.8 -4.0 -3.2 84 0.8 N 4 7 2 4 1015.5 1015.6 0.0
02/05:30am 1.0 -1.7 -2.6 77 1.4 SSW 2 7 1 4 1015.0 1015.2 0.0
02/05:00am 3.3 0.7 -1.6 70 1.9 S 2 9 1 5 1014.7 1014.8 0.0
02/04:30am 4.9 0.4 -0.3 69 2.1 NW 13 20 7 11 1014.2 1014.4 0.0
02/04:00am 5.2 -0.6 -0.4 67 2.3 NW 20 26 11 14 1013.8 1013.9 0.0
02/03:30am 5.5 -0.3 -0.1 67 2.3 NW 20 28 11 15 1013.8 1013.9 0.0
02/03:00am 5.7 0.1 0.1 67 2.3 NW 19 30 10 16 1013.8 1013.9 0.0
02/02:30am 5.2 0.3 -0.4 67 2.3 NNW 15 24 8 13 1013.9 1014.0 0.0
02/02:00am 6.0 1.1 -0.3 64 2.6 NW 15 26 8 14 1014.0 1014.2 0.0
02/01:30am 6.2 1.7 -0.3 63 2.6 NW 13 22 7 12 1014.0 1014.2 0.0
02/01:00am 6.3 1.1 0.0 64 2.6 NW 17 26 9 14 1014.2 1014.4 0.0
02/12:30am 6.5 2.5 0.4 65 2.5 NW 11 20 6 11 1014.6 1014.7 0.0
02/12:00am 6.8 1.6 0.3 63 2.7 NW 17 26 9 14 1014.7 1014.8 0.0
 
Date/Time
EST
Temp
°C
App
Temp
°C
Dew
Point
Rel
Hum
%
Delta-T
°C
Wind Press
QNH
hPa
Press
MSL
hPa
Rain
since 9 am
mm
Dir
 
Spd
km/h
Gust
km/h
Spd
kts
Gust
kts
01/11:30pm 6.5 0.9 0.0 63 2.7 WNW 19 28 10 15 1014.8 1014.9 0.0
01/11:00pm 6.6 2.2 0.3 64 2.6 NW 13 20 7 11 1014.8 1014.9 0.0
01/10:30pm 5.6 0.7 -0.4 65 2.4 NNW 15 19 8 10 1014.9 1015.0 0.0
01/10:00pm 6.7 2.1 -0.7 59 3.0 WNW 13 19 7 10 1015.0 1015.2 0.0
01/09:30pm 7.0 2.8 -0.7 58 3.1 NW 11 19 6 10 1014.9 1015.0 0.0
01/09:00pm 7.7 4.3 -0.5 56 3.4 WNW 7 13 4 7 1014.8 1014.9 0.0
01/08:30pm 8.3 0.9 -0.4 54 3.6 WNW 28 43 15 23 1013.9 1014.0 0.0
01/08:26pm 8.6 0.9 -0.4 53 3.7 WNW 30 48 16 26 1013.8 1013.9 0.0
01/08:00pm 8.7 1.0 -0.3 53 3.8 W 30 46 16 25 1013.5 1013.6 0.0
01/07:42pm 9.0 1.7 0.2 54 3.7 W 28 50 15 27 1013.7 1013.8 0.0
01/07:30pm 9.0 1.8 0.7 56 3.6 W 28 41 15 22 1013.7 1013.8 0.0
01/07:00pm 9.4 3.4 0.8 55 3.7 W 22 32 12 17 1013.6 1013.7 0.0
01/06:30pm 9.0 3.9 0.7 56 3.6 WSW 17 26 9 14 1013.2 1013.3 0.0
01/06:00pm 9.5 5.6 1.2 56 3.6 W 11 26 6 14 1012.6 1012.7 0.0
01/05:30pm 9.3 2.2 1.5 58 3.4 W 28 56 15 30 1011.7 1011.8 0.0
01/05:00pm 10.4 2.9 1.2 53 4.1 WNW 30 48 16 26 1011.0 1011.0 0.0
01/04:30pm 11.0 1.0 1.3 51 4.3 WNW 43 69 23 37 1010.5 1010.6 0.0
01/04:00pm 11.9 2.3 1.0 47 4.8 WNW 41 61 22 33 1010.5 1010.6 0.0
01/03:30pm 13.0 4.5 0.7 43 5.5 WNW 35 57 19 31 1010.3 1010.3 0.0
01/03:00pm 13.4 3.6 2.0 46 5.2 WNW 43 63 23 34 1009.9 1009.9 0.0
01/02:30pm 14.1 4.7 2.4 45 5.4 WNW 41 65 22 35 1009.2 1009.2 0.0
01/02:00pm 13.6 4.0 3.4 50 4.8 WNW 43 67 23 36 1008.7 1008.7 0.0
01/01:30pm 13.8 3.1 2.4 46 5.3 WNW 48 72 26 39 1008.8 1008.8 0.0
01/01:00pm 14.1 4.4 4.1 51 4.8 WNW 44 67 24 36 1009.0 1009.0 0.0
01/12:30pm 15.0 4.6 4.1 48 5.3 WNW 48 72 26 39 1008.4 1008.4 0.0
01/12:01pm 15.6 7.4 6.6 55 4.6 WNW 39 70 21 38 1008.9 1008.9 0.0
01/12:00pm 15.1 6.8 6.1 55 4.6 WNW 39 70 21 38 1009.0 1009.0 0.0
01/11:30am 15.2 4.6 5.1 51 5.0 WNW 50 74 27 40 1009.3 1009.3 0.0
01/11:00am 16.0 7.1 5.3 49 5.4 WNW 41 61 22 33 1009.5 1009.6 0.0
01/10:30am 16.0 7.6 5.6 50 5.2 WNW 39 65 21 35 1009.7 1009.7 0.0
01/10:00am 16.6 10.2 7.0 53 5.0 WNW 30 56 16 30 1009.8 1009.8 0.0
01/09:31am 16.0 9.0 7.0 55 4.7 WNW 33 57 18 31 1009.8 1008.4 0.0
01/09:30am 16.2 9.8 8.4 60 4.2 WNW 32 48 17 26 1009.7 1008.3 0.0
01/09:00am 16.1 8.3 8.1 59 4.3 WNW 39 61 21 33 1009.2 1007.9 1.4
01/08:34am 16.1 10.5 8.8 62 3.9 NW 28 54 15 29 1009.4 1008.1 1.4
01/08:30am 16.1 11.8 9.5 65 3.6 NW 22 52 12 28 1009.5 1008.2 1.4
01/08:17am 15.0 9.6 9.4 69 3.0 NW 28 50 15 27 1009.8 1008.4 1.4
01/08:00am 15.0 10.9 10.0 72 2.7 NW 22 41 12 22 1009.9 1008.5 1.4
01/07:30am 14.4 8.9 10.4 77 2.2 NW 30 52 16 28 1009.8 1008.4 1.4
01/07:13am 14.1 9.1 10.9 81 1.8 NNW 28 48 15 26 1009.5 1008.2 1.4
01/07:00am 14.4 10.8 10.6 78 2.1 N 20 37 11 20 1009.5 1008.2 1.2
01/06:30am 14.1 9.8 10.7 80 1.9 N 24 37 13 20 1009.3 1008.0 1.2
01/06:00am 12.0 9.3 11.8 99 0.1 NNE 17 26 9 14 1009.8 1008.4 1.2
01/05:30am 11.8 9.1 11.6 99 0.1 NE 17 24 9 13 1010.5 1009.2 1.2
01/05:00am 11.0 8.0 10.8 99 0.1 NNE 17 24 9 13 1011.6 1010.3 0.2
01/04:30am 10.0 5.4 9.5 97 0.3 NE 24 28 13 15 1010.6 1009.3 0.0
01/04:00am 11.8 7.7 10.0 89 1.0 NNE 22 28 12 15 1011.1 1009.7 0.0
01/03:30am 11.5 7.7 9.9 90 0.9 NNE 20 24 11 13 1011.4 1010.1 0.0
01/03:00am 11.2 7.5 9.3 88 1.0 N 19 20 10 11 1012.4 1011.1 0.0
01/02:30am 8.2 5.7 8.1 99 0.1 N 11 15 6 8 1013.2 1011.9 0.0

Other Formats:

Comma delimited format used in spreadsheet applications
http://www.bom.gov.au/fwo/IDN60801/IDN60801.94921.axf

JavaScript Object Notation format (JSON) in row-major order
http://www.bom.gov.au/fwo/IDN60801/IDN60801.94921.json